Latest Coastal Weather Observations for Cape Otway

IDT60701

Issued at 3:32 pm EST Wednesday 1 June 2016 (issued every 10 minutes, with the page automatically refreshed every 10 minutes)

About coastal observations | Map of coastal stations | Coastal observations for TAS | Marine services | Other Formats
Station Details ID: 090015 Name: CAPE OTWAY LIGHTHOUSE Lat: -38.86 Lon: 143.51 Height: 82.0 m
Data from the previous 72 hours. | See also: Recent months at Cape Otway
Date/Time
EST
Temp

°C
Wind Pressure Rain
since 9am
mm
Weather Cloud Vis
km
Sea
Height
m
Swell
Dir
 
Speed
knots
Gust
knots
hPa Trend Height
m
Period
s
Dir
01/03:30pm 14.6 ENE 7 9 1026.6 - 0.0 - - - - - - -
01/03:00pm 15.1 ENE 8 11 1026.9 - 0.0 - - - - - - -
01/02:30pm 15.2 ENE 7 9 1026.8 - 0.0 - - - - - - -
01/02:00pm 14.8 NE 7 10 1027.0 - 0.0 - - - - - - -
01/01:30pm 14.0 NE 7 9 1027.2 - 0.0 - - - - - - -
01/01:00pm 14.7 E 6 8 1027.3 - 0.0 - - - - - - -
01/12:30pm 15.3 E 5 8 1027.7 - 0.0 - - - - - - -
01/12:00pm 15.6 E 4 7 1028.4 - 0.0 - - - - - - -
01/11:30am 16.3 NE 6 8 1028.5 - 0.0 - - - - - - -
01/11:00am 14.4 ENE 8 11 1028.7 - 0.0 - - - - - - -
01/10:30am 14.0 ENE 9 12 1028.9 - 0.0 - - - - - - -
01/10:00am 13.5 ENE 8 13 1028.8 - 0.0 - - - - - - -
01/09:30am 12.8 NE 10 13 1028.8 - 0.0 - - - - - - -
01/09:00am 12.0 NE 10 13 1028.8 - 0.0 - - - - - - -
01/08:30am 11.3 NNE 10 12 1028.6 - 0.0 - - - - - - -
01/08:00am 9.9 NNE 10 12 1028.4 - 0.0 - - - - - - -
01/07:30am 10.2 NNE 11 12 1028.3 - 0.0 - - - - - - -
01/07:00am 10.4 NE 10 12 1027.9 - 0.0 - - - - - - -
01/06:30am 10.0 NNE 11 12 1027.8 - 0.0 - - - - - - -
01/06:00am 10.2 NE 11 14 1027.8 - 0.0 - - - - - - -
01/05:30am 10.1 NE 11 14 1027.4 - 0.0 - - - - - - -
01/05:00am 10.0 NNE 10 11 1027.4 - 0.0 - - - - - - -
01/04:30am 10.2 NE 9 11 1027.4 - 0.0 - - - - - - -
01/04:00am 10.4 NNE 9 11 1027.5 - 0.0 - - - - - - -
01/03:30am 10.1 NE 9 11 1027.6 - 0.0 - - - - - - -
01/03:00am 9.9 NE 9 11 1028.0 - 0.0 - - - - - - -
01/02:30am 10.0 NE 10 11 1027.8 - 0.0 - - - - - - -
01/02:00am 9.6 NE 9 11 1027.9 - 0.0 - - - - - - -
01/01:30am 9.6 NE 9 10 1028.0 - 0.0 - - - - - - -
01/01:00am 9.9 NE 8 10 1028.3 - 0.0 - - - - - - -
01/12:30am 10.4 NE 9 11 1028.4 - 0.0 - - - - - - -
01/12:00am 10.7 NE 9 10 1028.7 - 0.0 - - - - - - -
 
Date/Time
EST
Temp

°C
Wind Pressure Rain
since 9am
mm
Weather Cloud Vis
km
Sea
Height
m
Swell
Dir
 
Speed
knots
Gust
knots
hPa Trend Height
m
Period
s
Dir
31/11:30pm 10.9 NE 9 11 1028.7 - 0.0 - - - - - - -
31/11:00pm 10.8 NE 9 11 1028.7 - 0.0 - - - - - - -
31/10:30pm 11.2 NE 9 11 1028.7 - 0.0 - - - - - - -
31/10:00pm 11.2 NE 10 11 1028.9 - 0.0 - - - - - - -
31/09:30pm 10.9 NE 9 11 1028.9 - 0.0 - - - - - - -
31/09:00pm 10.9 NE 10 12 1028.7 - 0.0 - - - - - - -
31/08:30pm 10.8 NE 10 12 1028.6 - 0.0 - - - - - - -
31/08:00pm 10.8 NE 11 14 1028.6 - 0.0 - - - - - - -
31/07:30pm 10.4 NE 11 13 1028.6 - 0.0 - - - - - - -
31/07:00pm 10.1 NE 10 12 1028.5 - 0.0 - - - - - - -
31/06:30pm 10.3 NE 9 11 1028.4 - 0.0 - - - - - - -
31/06:00pm 10.7 NE 9 10 1028.3 - 0.0 - - - - - - -
31/05:30pm 11.1 NE 9 12 1028.0 - 0.0 - - - - - - -
31/05:00pm 11.5 NE 9 12 1027.8 - 0.0 - - - - - - -
31/04:30pm 12.5 NE 7 11 1027.8 - 0.0 - - - - - - -
31/04:00pm 13.2 ENE 9 13 1027.6 - 0.0 - - - - - - -
31/03:30pm 13.7 ENE 9 12 1027.4 - 0.0 - - - - - - -
31/03:00pm 13.8 E 9 13 1027.4 - 0.0 - - - - - - -
31/02:30pm 14.4 NE 6 10 1027.4 - 0.0 - - - - - - -
31/02:00pm 15.1 SW 2 4 1027.7 - 0.0 - - - - - - -
31/01:30pm 14.0 SW 5 7 1027.9 - 0.0 - - - - - - -
31/01:00pm 15.5 NNE 6 8 1028.0 - 0.0 - - - - - - -
31/12:30pm 15.3 NNE 5 7 1028.1 - 0.0 - - - - - - -
31/12:00pm 14.5 NE 7 11 1028.5 - 0.0 - - - - - - -
31/11:30am 13.5 NE 7 10 1029.0 - 0.0 - - - - - - -
31/11:00am 13.2 NE 7 10 1029.5 - 0.0 - - - - - - -
31/10:30am 12.7 ENE 5 9 1029.7 - 0.0 - - - - - - -
31/10:00am 12.0 E 4 6 1029.7 - 0.0 - - - - - - -
31/09:30am 11.7 NE 4 6 1029.7 - 0.0 - - - - - - -
31/09:00am 10.5 NE 6 8 1029.6 - 0.0 - - - - - - -
31/08:30am 9.1 NNE 8 10 1029.6 - 0.0 - - - - - - -
31/08:00am 8.4 NNE 9 11 1029.3 - 0.0 - - - - - - -
31/07:30am 8.2 NE 9 11 1029.0 - 0.0 - - - - - - -
31/07:00am 7.7 NNE 8 9 1028.7 - 0.0 - - - - - - -
31/06:30am 8.4 NNE 8 9 1028.5 - 0.0 - - - - - - -
31/06:00am 7.7 NNE 8 9 1028.4 - 0.0 - - - - - - -
31/05:30am 8.6 NNE 8 9 1028.3 - 0.0 - - - - - - -
31/05:00am 8.9 NNE 9 10 1028.0 - 0.0 - - - - - - -
31/04:30am 9.2 NNE 9 11 1027.8 - 0.0 - - - - - - -
31/04:00am 9.2 NE 9 11 1027.8 - 0.0 - - - - - - -
31/03:30am 9.1 NE 8 10 1027.9 - 0.0 - - - - - - -
31/03:00am 9.2 NE 8 10 1028.0 - 0.0 - - - - - - -
31/02:30am 9.4 NE 9 11 1027.9 - 0.0 - - - - - - -
31/02:00am 9.3 NNE 8 10 1028.0 - 0.0 - - - - - - -
31/01:30am 9.5 NE 9 11 1028.1 - 0.0 - - - - - - -
31/01:00am 9.5 NE 9 11 1028.0 - 0.0 - - - - - - -
31/12:30am 8.9 NNE 9 10 1028.1 - 0.0 - - - - - - -
31/12:00am 9.1 NNE 9 10 1028.4 - 0.0 - - - - - - -
 
Date/Time
EST
Temp

°C
Wind Pressure Rain
since 9am
mm
Weather Cloud Vis
km
Sea
Height
m
Swell
Dir
 
Speed
knots
Gust
knots
hPa Trend Height
m
Period
s
Dir
30/11:30pm 9.1 NNE 9 11 1028.3 - 0.0 - - - - - - -
30/11:00pm 9.2 N 9 10 1028.5 - 0.0 - - - - - - -
30/10:30pm 9.1 NNE 9 10 1028.4 - 0.0 - - - - - - -
30/10:00pm 9.5 NE 9 11 1028.3 - 0.0 - - - - - - -
30/09:30pm 9.4 NNE 9 11 1028.3 - 0.0 - - - - - - -
30/09:00pm 9.1 NNE 9 10 1028.2 - 0.0 - - - - - - -
30/08:30pm 8.8 N 9 10 1027.9 - 0.0 - - - - - - -
30/08:00pm 8.6 N 8 10 1027.7 - 0.0 - - - - - - -
30/07:30pm 9.0 N 8 9 1027.6 - 0.0 - - - - - - -
30/07:00pm 9.1 NNE 8 9 1027.2 - 0.0 - - - - - - -
30/06:30pm 9.1 NNE 8 9 1027.0 - 0.0 - - - - - - -
30/06:00pm 9.3 NNE 8 10 1027.1 - 0.0 - - - - - - -
30/05:30pm 9.7 NNE 8 10 1026.7 - 0.0 - - - - - - -
30/05:00pm 10.5 NE 8 12 1026.2 - 0.0 - - - - - - -
30/04:30pm 11.3 ENE 10 14 1025.8 - 0.0 - - - - - - -
30/04:00pm 11.9 ENE 11 17 1025.7 - 0.0 - - - - - - -
30/03:30pm 12.4 ENE 11 17 1025.6 - 0.0 - - - - - - -
30/03:00pm 12.7 E 9 13 1025.7 - 0.0 - - - - - - -
30/02:30pm 12.9 E 9 15 1025.5 - 0.0 - - - - - - -
30/02:00pm 12.9 ENE 9 13 1025.5 - 0.0 - - - - - - -
30/01:30pm 12.9 E 10 16 1025.6 - 0.0 - - - - - - -
30/01:00pm 12.9 E 10 15 1025.7 - 0.0 - - - - - - -
30/12:30pm 13.0 E 9 13 1026.0 - 0.0 - - - - - - -
30/12:00pm 12.8 E 10 13 1026.3 - 0.0 - - - - - - -
30/11:30am 13.1 ENE 9 13 1026.5 - 0.0 - - - - - - -
30/11:00am 12.7 NE 9 14 1026.8 - 0.0 - - - - - - -
30/10:30am 12.5 NNE 9 13 1027.0 - 0.0 - - - - - - -
30/10:00am 11.9 NNE 7 12 1026.8 - 0.0 - - - - - - -
30/09:30am 10.8 N 7 10 1026.6 - 0.0 - - - - - - -
30/09:00am 10.1 N 9 12 1026.6 - 0.0 - - - - - - -
30/08:30am 8.7 N 11 13 1026.2 - 0.0 - - - - - - -
30/08:00am 8.3 N 11 13 1026.0 - 0.0 - - - - - - -
30/07:30am 8.2 N 11 13 1025.6 - 0.0 - - - - - - -
30/07:00am 8.2 N 10 13 1025.4 - 0.0 - - - - - - -
30/06:30am 8.2 N 11 13 1025.1 - 0.0 - - - - - - -
30/06:00am 8.2 N 10 13 1024.8 - 0.0 - - - - - - -
30/05:30am 8.2 N 10 12 1024.6 - 0.0 - - - - - - -
30/05:00am 8.1 N 10 12 1024.4 - 0.0 - - - - - - -
30/04:30am 8.6 N 10 12 1024.3 - 0.0 - - - - - - -
30/04:00am 8.8 N 8 10 1024.1 - 0.0 - - - - - - -
30/03:30am 9.0 N 9 12 1024.1 - 0.0 - - - - - - -
30/03:00am 9.1 N 8 10 1024.1 - 0.0 - - - - - - -
30/02:30am 9.3 N 8 9 1024.0 - 0.0 - - - - - - -
30/02:00am 9.6 N 7 10 1024.0 - 0.0 - - - - - - -
30/01:30am 9.4 N 7 9 1023.8 - 0.0 - - - - - - -
30/01:00am 9.4 N 7 8 1023.6 - 0.0 - - - - - - -
30/12:30am 9.4 N 7 9 1023.6 - 0.0 - - - - - - -
30/12:00am 8.8 N 7 9 1023.6 - 0.0 - - - - - - -
 
Date/Time
EST
Temp

°C
Wind Pressure Rain
since 9am
mm
Weather Cloud Vis
km
Sea
Height
m
Swell
Dir
 
Speed
knots
Gust
knots
hPa Trend Height
m
Period
s
Dir
29/11:30pm 9.1 N 8 9 1023.5 - 0.0 - - - - - - -
29/11:00pm 9.2 N 7 9 1023.4 - 0.0 - - - - - - -
29/10:30pm 9.3 N 5 6 1023.2 - 0.0 - - - - - - -
29/10:00pm 10.1 N 6 8 1023.1 - 0.0 - - - - - - -
29/09:30pm 10.1 NNE 5 6 1023.1 - 0.0 - - - - - - -
29/09:00pm 10.4 N 6 7 1023.0 - 0.0 - - - - - - -
29/08:30pm 10.2 N 6 6 1022.8 - 0.0 - - - - - - -
29/08:00pm 10.3 N 6 7 1022.7 - 0.0 - - - - - - -
29/07:30pm 10.3 N 5 6 1022.4 - 0.0 - - - - - - -
29/07:00pm 10.4 N 4 5 1022.1 - 0.0 - - - - - - -
29/06:30pm 11.5 SSE 1 4 1021.9 - 0.0 - - - - - - -
29/06:00pm 11.0 CALM 0 3 1021.6 - 0.0 - - - - - - -
29/05:30pm 11.5 SSE 4 7 1021.3 - 0.0 - - - - - - -
29/05:00pm 11.6 SSW 4 5 1021.1 - 0.0 - - - - - - -
29/04:30pm 11.7 SSW 6 11 1020.9 - 0.0 - - - - - - -
29/04:00pm 11.8 SSW 6 9 1020.9 - 0.0 - - - - - - -

Other Formats:

Comma delimited format used in spreadsheet applications
http://www.bom.gov.au/fwo/IDT60701/IDT60701.94842.axf

JavaScript Object Notation format (JSON) in row-major order
http://www.bom.gov.au/fwo/IDT60701/IDT60701.94842.json